createdAt,value
2019-04-04T00:00:49.074Z,987.77
2019-04-04T00:01:49.065Z,987.81
2019-04-04T00:02:49.758Z,987.70
2019-04-04T00:03:51.504Z,987.68
2019-04-04T00:04:52.308Z,987.60
2019-04-04T00:05:49.048Z,987.56
2019-04-04T00:06:49.042Z,987.51
2019-04-04T00:07:49.042Z,987.52
2019-04-04T00:08:49.045Z,987.54
2019-04-04T00:09:49.034Z,987.62
2019-04-04T00:10:49.022Z,987.64
2019-04-04T00:11:49.011Z,987.64
2019-04-04T00:12:49.009Z,987.64
2019-04-04T00:13:48.995Z,987.65
2019-04-04T00:14:48.990Z,987.65
2019-04-04T00:15:48.980Z,987.64
2019-04-04T00:16:49.383Z,987.67
2019-04-04T00:17:48.970Z,987.64
2019-04-04T00:18:48.949Z,987.61
2019-04-04T00:19:48.950Z,987.72
2019-04-04T00:20:48.941Z,987.71
2019-04-04T00:21:48.931Z,987.73
2019-04-04T00:22:48.925Z,987.75
2019-04-04T00:23:48.918Z,987.80
2019-04-04T00:24:48.911Z,987.73
2019-04-04T00:25:48.908Z,987.72
2019-04-04T00:26:48.889Z,987.69
2019-04-04T00:27:48.887Z,987.68
2019-04-04T00:28:48.879Z,987.66
2019-04-04T00:29:48.868Z,987.72
2019-04-04T00:30:48.937Z,987.75
2019-04-04T00:31:49.831Z,987.79
2019-04-04T00:32:50.903Z,987.78
2019-04-04T00:33:48.865Z,987.82
2019-04-04T00:34:48.853Z,987.78
2019-04-04T00:35:48.855Z,987.84
2019-04-04T00:36:48.848Z,987.79
2019-04-04T00:37:48.826Z,987.76
2019-04-04T00:38:48.818Z,987.73
2019-04-04T00:39:48.814Z,987.68
2019-04-04T00:40:48.805Z,987.78
2019-04-04T00:41:48.807Z,987.72
2019-04-04T00:42:48.787Z,987.70
2019-04-04T00:43:49.887Z,987.69
2019-04-04T00:44:48.772Z,987.62
2019-04-04T00:45:48.767Z,987.58
2019-04-04T00:46:48.761Z,987.58
2019-04-04T00:47:48.808Z,987.58
2019-04-04T00:48:48.737Z,987.64
2019-04-04T00:49:48.742Z,987.62
2019-04-04T00:50:48.732Z,987.70
2019-04-04T00:51:48.729Z,987.67
2019-04-04T00:52:48.722Z,987.68
2019-04-04T00:53:48.715Z,987.66
2019-04-04T00:54:48.702Z,987.65
2019-04-04T00:55:48.691Z,987.66
2019-04-04T00:56:48.833Z,987.62
2019-04-04T00:57:50.397Z,987.63
2019-04-04T00:58:51.779Z,987.62
2019-04-04T00:59:49.667Z,987.72
2019-04-04T01:00:48.663Z,987.66
2019-04-04T01:01:48.652Z,987.68
2019-04-04T01:02:48.657Z,987.66
2019-04-04T01:03:48.647Z,987.61
2019-04-04T01:04:48.636Z,987.58
2019-04-04T01:05:48.621Z,987.60
2019-04-04T01:06:48.612Z,987.65
2019-04-04T01:07:48.609Z,987.65
2019-04-04T01:08:48.606Z,987.74
2019-04-04T01:09:48.587Z,987.72
2019-04-04T01:10:49.816Z,987.65
2019-04-04T01:11:51.242Z,987.61
2019-04-04T01:12:50.195Z,987.53
2019-04-04T01:13:48.571Z,987.49
2019-04-04T01:14:48.561Z,987.49
2019-04-04T01:15:48.548Z,987.46
2019-04-04T01:16:48.541Z,987.55
2019-04-04T01:17:48.540Z,987.62
2019-04-04T01:18:48.530Z,987.56
2019-04-04T01:19:49.004Z,987.60
2019-04-04T01:20:50.664Z,987.43
2019-04-04T01:21:49.519Z,987.40
2019-04-04T01:22:48.496Z,987.29
2019-04-04T01:23:48.501Z,987.29
2019-04-04T01:24:48.487Z,987.24
2019-04-04T01:25:48.475Z,987.12
2019-04-04T01:26:48.472Z,987.06
2019-04-04T01:27:48.463Z,987.01
2019-04-04T01:28:48.452Z,987.10
2019-04-04T01:29:48.471Z,987.00
2019-04-04T01:30:48.461Z,987.05
2019-04-04T01:31:48.449Z,986.98
2019-04-04T01:32:48.776Z,987.04
2019-04-04T01:33:50.894Z,987.00
2019-04-04T01:34:51.759Z,987.03
2019-04-04T01:35:48.428Z,987.06
2019-04-04T01:36:48.415Z,987.02
2019-04-04T01:37:48.411Z,986.95
2019-04-04T01:38:48.398Z,986.94
2019-04-04T01:39:48.403Z,986.90
2019-04-04T01:40:48.395Z,986.96
2019-04-04T01:41:48.378Z,986.92
2019-04-04T01:42:48.369Z,986.96
2019-04-04T01:43:48.367Z,986.87
2019-04-04T01:44:48.358Z,986.87
2019-04-04T01:45:48.354Z,986.84
2019-04-04T01:46:48.342Z,986.79
2019-04-04T01:47:48.673Z,986.79
2019-04-04T01:48:49.959Z,986.79
2019-04-04T01:49:49.978Z,986.70
2019-04-04T01:50:48.314Z,986.74
2019-04-04T01:51:48.315Z,986.72
2019-04-04T01:52:48.296Z,986.70
2019-04-04T01:53:48.288Z,986.73
2019-04-04T01:54:48.285Z,986.66
2019-04-04T01:55:48.277Z,986.65
2019-04-04T01:56:48.277Z,986.59
2019-04-04T01:57:48.266Z,986.58
2019-04-04T01:58:48.259Z,986.58
2019-04-04T01:59:48.240Z,986.50
2019-04-04T02:00:49.250Z,986.50
2019-04-04T02:01:48.238Z,986.44
2019-04-04T02:02:49.842Z,986.43
2019-04-04T02:03:48.220Z,986.43
2019-04-04T02:04:48.212Z,986.44
2019-04-04T02:05:48.210Z,986.41
2019-04-04T02:06:48.200Z,986.48
2019-04-04T02:07:48.191Z,986.48
2019-04-04T02:08:48.178Z,986.61
2019-04-04T02:09:48.171Z,986.70
2019-04-04T02:10:48.160Z,986.74
2019-04-04T02:11:48.165Z,986.79
2019-04-04T02:12:48.159Z,986.86
2019-04-04T02:13:48.145Z,986.81
2019-04-04T02:14:48.130Z,986.80
2019-04-04T02:15:48.149Z,986.85
2019-04-04T02:16:50.805Z,986.82
2019-04-04T02:17:49.113Z,986.86
2019-04-04T02:18:48.106Z,986.78
2019-04-04T02:19:48.095Z,986.68
2019-04-04T02:20:48.090Z,986.69
2019-04-04T02:21:48.083Z,986.72
2019-04-04T02:22:48.081Z,986.71
2019-04-04T02:23:48.067Z,986.69
2019-04-04T02:24:48.061Z,986.69
2019-04-04T02:25:48.051Z,986.67
2019-04-04T02:26:48.046Z,986.66
2019-04-04T02:27:48.050Z,986.71
2019-04-04T02:28:48.030Z,986.68
2019-04-04T02:29:48.028Z,986.65
2019-04-04T02:30:48.483Z,986.71
2019-04-04T02:31:53.007Z,986.61
2019-04-04T02:32:47.998Z,986.60
2019-04-04T02:33:47.989Z,986.55
2019-04-04T02:34:47.988Z,986.39
2019-04-04T02:35:47.975Z,986.26
2019-04-04T02:36:49.409Z,986.13
2019-04-04T02:37:48.980Z,986.14
2019-04-04T02:38:47.975Z,986.17
2019-04-04T02:39:47.970Z,986.27
2019-04-04T02:40:47.983Z,986.28
2019-04-04T02:41:49.187Z,986.27
2019-04-04T02:42:48.953Z,986.19
2019-04-04T02:43:47.931Z,986.16
2019-04-04T02:44:48.934Z,986.18
2019-04-04T02:45:47.927Z,986.23
2019-04-04T02:46:47.919Z,986.18
2019-04-04T02:47:51.194Z,986.18
2019-04-04T02:48:47.900Z,986.24
2019-04-04T02:49:47.890Z,986.28
2019-04-04T02:50:47.889Z,986.32
2019-04-04T02:51:47.880Z,986.39
2019-04-04T02:52:47.868Z,986.40
2019-04-04T02:53:51.913Z,986.46
2019-04-04T02:54:47.864Z,986.40
2019-04-04T02:55:47.854Z,986.38
2019-04-04T02:56:47.852Z,986.37
2019-04-04T02:57:48.839Z,986.36
2019-04-04T02:58:47.823Z,986.34
2019-04-04T02:59:47.839Z,986.29
2019-04-04T03:00:47.825Z,986.32
2019-04-04T03:01:47.822Z,986.31
2019-04-04T03:02:47.810Z,986.22
2019-04-04T03:03:47.804Z,986.28
2019-04-04T03:04:47.812Z,986.22
2019-04-04T03:05:50.708Z,986.23
2019-04-04T03:06:48.800Z,986.26
2019-04-04T03:07:47.785Z,986.28
2019-04-04T03:08:47.776Z,986.38
2019-04-04T03:09:47.781Z,986.37
2019-04-04T03:10:49.326Z,986.34
2019-04-04T03:11:48.774Z,986.30
2019-04-04T03:12:47.765Z,986.22
2019-04-04T03:13:47.762Z,986.20
2019-04-04T03:14:50.423Z,986.12
2019-04-04T03:15:48.761Z,986.14
2019-04-04T03:16:47.740Z,986.18
2019-04-04T03:17:47.737Z,986.17
2019-04-04T03:18:47.730Z,986.22
2019-04-04T03:19:47.729Z,986.19
2019-04-04T03:20:50.375Z,986.21
2019-04-04T03:21:48.696Z,986.22
2019-04-04T03:22:47.702Z,986.26
2019-04-04T03:23:47.680Z,986.34
2019-04-04T03:24:47.686Z,986.31
2019-04-04T03:25:48.220Z,986.37
2019-04-04T03:26:52.208Z,986.34
2019-04-04T03:27:47.661Z,986.37
2019-04-04T03:28:47.661Z,986.37
2019-04-04T03:29:47.647Z,986.40
2019-04-04T03:31:00.612Z,986.35
2019-04-04T03:31:48.634Z,986.31
2019-04-04T03:32:54.091Z,986.29
2019-04-04T03:33:48.611Z,986.25
2019-04-04T03:34:49.944Z,986.27
2019-04-04T03:35:48.594Z,986.30
2019-04-04T03:36:47.587Z,986.22
2019-04-04T03:37:47.613Z,986.21
2019-04-04T03:38:47.578Z,986.22
2019-04-04T03:39:51.904Z,986.24
2019-04-04T03:40:48.555Z,986.25
2019-04-04T03:41:47.549Z,986.24
2019-04-04T03:42:47.547Z,986.23
2019-04-04T03:43:48.874Z,986.13
2019-04-04T03:44:52.854Z,986.06
2019-04-04T03:45:49.527Z,986.00
2019-04-04T03:46:47.530Z,985.81
2019-04-04T03:47:47.528Z,985.82
2019-04-04T03:48:49.923Z,985.73
2019-04-04T03:49:48.504Z,985.70
2019-04-04T03:50:47.501Z,985.65
2019-04-04T03:51:47.499Z,985.62
2019-04-04T03:52:47.488Z,985.58
2019-04-04T03:53:49.386Z,985.53
2019-04-04T03:54:48.492Z,985.44
2019-04-04T03:55:47.479Z,985.31
2019-04-04T03:56:47.475Z,985.25
2019-04-04T03:57:47.468Z,985.20
2019-04-04T03:58:47.463Z,985.16
2019-04-04T03:59:47.456Z,985.13
2019-04-04T04:00:47.450Z,985.12
2019-04-04T04:01:47.459Z,985.11
2019-04-04T04:02:49.685Z,985.10
2019-04-04T04:03:48.460Z,985.13
2019-04-04T04:04:47.458Z,985.30
2019-04-04T04:05:47.434Z,985.33
2019-04-04T04:06:47.420Z,985.50
2019-04-04T04:07:48.065Z,985.53
2019-04-04T04:08:48.582Z,985.66
2019-04-04T04:09:47.408Z,985.73
2019-04-04T04:10:48.397Z,985.76
2019-04-04T04:11:47.399Z,985.75
2019-04-04T04:12:47.390Z,985.80
2019-04-04T04:13:49.903Z,985.76
2019-04-04T04:14:47.378Z,985.74
2019-04-04T04:15:47.363Z,985.70
2019-04-04T04:16:47.356Z,985.60
2019-04-04T04:17:47.346Z,985.55
2019-04-04T04:18:47.343Z,985.53
2019-04-04T04:19:47.335Z,985.39
2019-04-04T04:20:47.323Z,985.32
2019-04-04T04:21:47.308Z,985.29
2019-04-04T04:22:50.333Z,985.23
2019-04-04T04:23:49.996Z,985.17
2019-04-04T04:24:48.335Z,985.21
2019-04-04T04:25:47.279Z,985.25
2019-04-04T04:26:47.425Z,985.28
2019-04-04T04:27:48.330Z,985.29
2019-04-04T04:28:52.184Z,985.25
2019-04-04T04:29:47.250Z,985.26
2019-04-04T04:30:47.248Z,985.27
2019-04-04T04:31:49.276Z,985.26
2019-04-04T04:32:48.227Z,985.32
2019-04-04T04:33:47.233Z,985.32
2019-04-04T04:34:47.213Z,985.33
2019-04-04T04:35:47.284Z,985.36
2019-04-04T04:36:48.087Z,985.38
2019-04-04T04:37:52.321Z,985.39
2019-04-04T04:38:48.182Z,985.35
2019-04-04T04:39:47.179Z,985.37
2019-04-04T04:40:48.052Z,985.47
2019-04-04T04:41:48.168Z,985.44
2019-04-04T04:42:47.152Z,985.42
2019-04-04T04:43:47.145Z,985.46
2019-04-04T04:44:47.131Z,985.45
2019-04-04T04:45:47.131Z,985.37
2019-04-04T04:46:49.745Z,985.42
2019-04-04T04:47:48.123Z,985.42
2019-04-04T04:48:47.111Z,985.45
2019-04-04T04:49:47.107Z,985.40
2019-04-04T04:50:47.097Z,985.39
2019-04-04T04:51:47.114Z,985.37
2019-04-04T04:52:47.681Z,985.38
2019-04-04T04:53:48.180Z,985.34
2019-04-04T04:54:47.061Z,985.40
2019-04-04T04:55:47.048Z,985.45
2019-04-04T04:56:47.053Z,985.42
2019-04-04T04:57:47.039Z,985.44
2019-04-04T04:58:47.028Z,985.39
2019-04-04T04:59:47.116Z,985.40
2019-04-04T05:00:47.330Z,985.34
2019-04-04T05:01:50.090Z,985.29
2019-04-04T05:02:48.004Z,985.12
2019-04-04T05:03:46.988Z,985.18
2019-04-04T05:04:46.978Z,985.17
2019-04-04T05:05:46.972Z,985.16
2019-04-04T05:06:46.961Z,985.16
2019-04-04T05:07:46.964Z,985.17
2019-04-04T05:08:46.945Z,985.18
2019-04-04T05:09:46.935Z,985.23
2019-04-04T05:10:46.926Z,985.27
2019-04-04T05:11:49.871Z,985.21
2019-04-04T05:12:46.913Z,985.29
2019-04-04T05:13:46.913Z,985.23
2019-04-04T05:14:46.897Z,985.17
2019-04-04T05:15:46.893Z,985.17
2019-04-04T05:16:46.881Z,985.13
2019-04-04T05:17:46.875Z,985.11
2019-04-04T05:18:48.170Z,985.30
2019-04-04T05:19:48.178Z,985.32
2019-04-04T05:20:46.859Z,985.41
2019-04-04T05:21:46.844Z,985.36
2019-04-04T05:22:46.840Z,985.36
2019-04-04T05:23:47.625Z,985.45
2019-04-04T05:25:07.095Z,985.33
2019-04-04T05:25:53.791Z,985.36
2019-04-04T05:26:48.812Z,985.30
2019-04-04T05:27:46.808Z,985.36
2019-04-04T05:28:46.826Z,985.40
2019-04-04T05:29:46.792Z,985.44
2019-04-04T05:30:47.181Z,985.45
2019-04-04T05:31:49.771Z,985.38
2019-04-04T05:32:47.768Z,985.38
2019-04-04T05:33:46.761Z,985.34
2019-04-04T05:34:46.775Z,985.36
2019-04-04T05:35:46.751Z,985.34
2019-04-04T05:36:46.749Z,985.34
2019-04-04T05:37:46.730Z,985.36
2019-04-04T05:38:47.299Z,985.32
2019-04-04T05:39:50.995Z,985.26
2019-04-04T05:40:46.706Z,985.29
2019-04-04T05:41:46.713Z,985.26
2019-04-04T05:42:46.690Z,985.25
2019-04-04T05:43:46.681Z,985.20
2019-04-04T05:44:46.681Z,985.12
2019-04-04T05:45:46.667Z,985.13
2019-04-04T05:46:46.658Z,985.12
2019-04-04T05:47:46.646Z,985.16
2019-04-04T05:48:46.637Z,985.16
2019-04-04T05:49:46.627Z,985.26
2019-04-04T05:50:46.631Z,985.34
2019-04-04T05:51:48.414Z,985.40
2019-04-04T05:52:46.627Z,985.44
2019-04-04T05:53:46.612Z,985.41
2019-04-04T05:54:46.609Z,985.44
2019-04-04T05:55:46.626Z,985.39
2019-04-04T05:56:48.612Z,985.46
2019-04-04T05:57:48.988Z,985.35
2019-04-04T05:58:46.585Z,985.37
2019-04-04T05:59:46.570Z,985.26
2019-04-04T06:00:46.562Z,985.34
2019-04-04T06:01:46.614Z,985.29
2019-04-04T06:02:46.562Z,985.27
2019-04-04T06:03:47.768Z,985.30
2019-04-04T06:04:48.876Z,985.26
2019-04-04T06:05:46.518Z,985.20
2019-04-04T06:06:46.520Z,985.22
2019-04-04T06:07:46.541Z,985.25
2019-04-04T06:08:46.504Z,985.21
2019-04-04T06:09:47.089Z,985.18
2019-04-04T06:10:48.029Z,985.22
2019-04-04T06:11:48.682Z,985.28
2019-04-04T06:12:46.453Z,985.19
2019-04-04T06:13:46.463Z,985.22
2019-04-04T06:14:46.447Z,985.21
2019-04-04T06:15:46.432Z,985.27
2019-04-04T06:16:46.430Z,985.30
2019-04-04T06:17:46.420Z,985.37
2019-04-04T06:18:49.077Z,985.29
2019-04-04T06:19:46.399Z,985.30
2019-04-04T06:20:48.388Z,985.34
2019-04-04T06:21:47.901Z,985.33
2019-04-04T06:22:47.411Z,985.26
2019-04-04T06:23:46.378Z,985.25
2019-04-04T06:24:46.366Z,985.23
2019-04-04T06:25:46.358Z,985.29
2019-04-04T06:26:46.351Z,985.27
2019-04-04T06:27:46.345Z,985.24
2019-04-04T06:28:46.333Z,985.22
2019-04-04T06:29:47.904Z,985.18
2019-04-04T06:30:47.312Z,985.19
2019-04-04T06:31:46.305Z,985.21
2019-04-04T06:32:46.307Z,985.15
2019-04-04T06:33:46.474Z,985.24
2019-04-04T06:34:46.293Z,985.28
2019-04-04T06:35:47.836Z,985.29
2019-04-04T06:36:49.104Z,985.36
2019-04-04T06:37:46.355Z,985.31
2019-04-04T06:38:46.320Z,985.44
2019-04-04T06:39:46.249Z,985.51
2019-04-04T06:40:46.232Z,985.53
2019-04-04T06:41:46.230Z,985.56
2019-04-04T06:42:46.220Z,985.54
2019-04-04T06:43:46.213Z,985.49
2019-04-04T06:44:46.207Z,985.43
2019-04-04T06:45:46.662Z,985.47
2019-04-04T06:46:47.188Z,985.38
2019-04-04T06:47:46.191Z,985.31
2019-04-04T06:48:46.185Z,985.15
2019-04-04T06:49:46.185Z,985.16
2019-04-04T06:50:46.167Z,985.12
2019-04-04T06:51:47.185Z,985.15
2019-04-04T06:52:48.302Z,985.15
2019-04-04T06:53:46.974Z,985.19
2019-04-04T06:54:47.193Z,985.16
2019-04-04T06:55:46.124Z,985.16
2019-04-04T06:56:46.118Z,985.21
2019-04-04T06:57:48.688Z,985.32
2019-04-04T06:58:47.102Z,985.41
2019-04-04T06:59:46.101Z,985.36
2019-04-04T07:00:48.648Z,985.24
2019-04-04T07:01:47.082Z,985.27
2019-04-04T07:02:47.392Z,985.31
2019-04-04T07:03:47.070Z,985.32
2019-04-04T07:04:46.061Z,985.23
2019-04-04T07:05:46.068Z,985.26
2019-04-04T07:06:46.055Z,985.18
2019-04-04T07:07:46.044Z,985.18
2019-04-04T07:08:46.857Z,985.19
2019-04-04T07:09:46.039Z,985.25
2019-04-04T07:10:57.379Z,985.23
2019-04-04T07:11:48.010Z,985.21
2019-04-04T07:12:48.787Z,985.24
2019-04-04T07:13:45.993Z,985.18
2019-04-04T07:14:49.323Z,985.29
2019-04-04T07:15:48.502Z,985.26
2019-04-04T07:16:48.002Z,985.26
2019-04-04T07:17:45.951Z,985.29
2019-04-04T07:18:45.949Z,985.30
2019-04-04T07:19:46.781Z,985.28
2019-04-04T07:20:48.355Z,985.29
2019-04-04T07:21:45.930Z,985.28
2019-04-04T07:22:45.913Z,985.40
2019-04-04T07:23:45.907Z,985.34
2019-04-04T07:24:45.904Z,985.35
2019-04-04T07:25:45.900Z,985.40
2019-04-04T07:26:46.076Z,985.39
2019-04-04T07:27:47.435Z,985.39
2019-04-04T07:28:45.884Z,985.47
2019-04-04T07:29:45.878Z,985.46
2019-04-04T07:30:45.934Z,985.41
2019-04-04T07:31:45.883Z,985.45
2019-04-04T07:32:45.887Z,985.49
2019-04-04T07:33:45.871Z,985.50
2019-04-04T07:34:45.971Z,985.50
2019-04-04T07:35:46.917Z,985.44
2019-04-04T07:36:45.855Z,985.56
2019-04-04T07:37:45.883Z,985.54
2019-04-04T07:38:45.824Z,985.53
2019-04-04T07:39:45.819Z,985.56
2019-04-04T07:40:45.809Z,985.47
2019-04-04T07:41:45.815Z,985.49
2019-04-04T07:42:48.001Z,985.44
2019-04-04T07:43:45.818Z,985.44
2019-04-04T07:44:45.789Z,985.49
2019-04-04T07:45:45.772Z,985.51
2019-04-04T07:46:46.038Z,985.53
2019-04-04T07:47:47.510Z,985.57
2019-04-04T07:48:45.759Z,985.59
2019-04-04T07:49:45.738Z,985.57
2019-04-04T07:50:45.740Z,985.65
2019-04-04T07:51:45.727Z,985.60
2019-04-04T07:52:45.739Z,985.63
2019-04-04T07:53:45.756Z,985.59
2019-04-04T07:54:45.721Z,985.60
2019-04-04T07:55:45.716Z,985.71
2019-04-04T07:56:48.682Z,985.72
2019-04-04T07:57:46.698Z,985.77
2019-04-04T07:58:45.783Z,985.73
2019-04-04T07:59:45.691Z,985.72
2019-04-04T08:00:45.678Z,985.67
2019-04-04T08:01:50.987Z,985.68
2019-04-04T08:02:47.660Z,985.61
2019-04-04T08:03:45.664Z,985.62
2019-04-04T08:04:45.675Z,985.58
2019-04-04T08:05:45.655Z,985.60
2019-04-04T08:06:45.672Z,985.55
2019-04-04T08:07:45.661Z,985.59
2019-04-04T08:08:45.655Z,985.57
2019-04-04T08:09:45.660Z,985.54
2019-04-04T08:10:45.650Z,985.54
2019-04-04T08:11:45.631Z,985.54
2019-04-04T08:12:45.637Z,985.56
2019-04-04T08:13:45.624Z,985.59
2019-04-04T08:14:45.615Z,985.50
2019-04-04T08:15:45.600Z,985.52
2019-04-04T08:16:46.666Z,985.52
2019-04-04T08:17:45.579Z,985.48
2019-04-04T08:18:45.570Z,985.42
2019-04-04T08:19:45.564Z,985.40
2019-04-04T08:20:45.565Z,985.32
2019-04-04T08:21:45.551Z,985.35
2019-04-04T08:22:45.541Z,985.30
2019-04-04T08:23:45.548Z,985.31
2019-04-04T08:24:45.529Z,985.36
2019-04-04T08:25:45.530Z,985.26
2019-04-04T08:26:45.513Z,985.23
2019-04-04T08:27:45.513Z,985.21
2019-04-04T08:28:45.505Z,985.20
2019-04-04T08:29:45.499Z,985.15
2019-04-04T08:30:45.573Z,985.18
2019-04-04T08:31:45.479Z,985.26
2019-04-04T08:32:45.471Z,985.26
2019-04-04T08:33:45.671Z,985.22
2019-04-04T08:34:45.454Z,985.25
2019-04-04T08:35:45.468Z,985.29
2019-04-04T08:36:45.485Z,985.27
2019-04-04T08:37:45.459Z,985.22
2019-04-04T08:38:45.471Z,985.20
2019-04-04T08:39:45.455Z,985.23
2019-04-04T08:40:46.298Z,985.20
2019-04-04T08:41:46.617Z,985.25
2019-04-04T08:42:46.025Z,985.23
2019-04-04T08:43:45.535Z,985.23
2019-04-04T08:44:45.787Z,985.18
2019-04-04T08:45:45.756Z,985.17
2019-04-04T08:46:45.504Z,985.26
2019-04-04T08:47:45.397Z,985.26
2019-04-04T08:48:45.383Z,985.25
2019-04-04T08:49:45.382Z,985.27
2019-04-04T08:50:45.380Z,985.28
2019-04-04T08:51:45.366Z,985.38
2019-04-04T08:52:45.451Z,985.32
2019-04-04T08:53:45.346Z,985.32
2019-04-04T08:54:45.350Z,985.27
2019-04-04T08:55:45.327Z,985.35
2019-04-04T08:56:45.328Z,985.34
2019-04-04T08:57:45.401Z,985.31
2019-04-04T08:58:45.312Z,985.33
2019-04-04T08:59:45.304Z,985.39
2019-04-04T09:00:45.297Z,985.36
2019-04-04T09:01:45.283Z,985.40
2019-04-04T09:02:45.277Z,985.34
2019-04-04T09:03:45.271Z,985.32
2019-04-04T09:04:45.260Z,985.29
2019-04-04T09:05:45.254Z,985.26
2019-04-04T09:06:45.264Z,985.26
2019-04-04T09:07:45.253Z,985.21
2019-04-04T09:08:45.263Z,985.20
2019-04-04T09:09:45.386Z,985.24
2019-04-04T09:10:45.254Z,985.17
2019-04-04T09:11:45.249Z,985.22
2019-04-04T09:12:45.242Z,985.28
2019-04-04T09:13:45.324Z,985.30
2019-04-04T09:14:45.222Z,985.34
2019-04-04T09:15:45.212Z,985.29
2019-04-04T09:16:45.210Z,985.30
2019-04-04T09:17:45.210Z,985.45
2019-04-04T09:18:45.214Z,985.49
2019-04-04T09:19:45.194Z,985.47
2019-04-04T09:20:45.188Z,985.55
2019-04-04T09:21:45.170Z,985.50
2019-04-04T09:22:45.160Z,985.40
2019-04-04T09:23:45.158Z,985.41
2019-04-04T09:24:45.149Z,985.38
2019-04-04T09:25:45.136Z,985.44
2019-04-04T09:26:45.123Z,985.41
2019-04-04T09:27:45.129Z,985.40
2019-04-04T09:28:45.108Z,985.45
2019-04-04T09:29:45.113Z,985.44
2019-04-04T09:30:45.092Z,985.37
2019-04-04T09:31:45.083Z,985.41
2019-04-04T09:32:45.076Z,985.35
2019-04-04T09:33:45.073Z,985.29
2019-04-04T09:34:45.111Z,985.26
2019-04-04T09:35:45.073Z,985.18
2019-04-04T09:36:45.049Z,985.14
2019-04-04T09:37:45.041Z,985.14
2019-04-04T09:38:45.036Z,985.07
2019-04-04T09:39:45.029Z,985.07
2019-04-04T09:40:45.112Z,985.05
2019-04-04T09:41:45.027Z,985.04
2019-04-04T09:42:45.033Z,984.97
2019-04-04T09:43:45.014Z,984.99
2019-04-04T09:44:45.007Z,984.95
2019-04-04T09:45:45.003Z,984.98
2019-04-04T09:46:44.988Z,984.89
2019-04-04T09:47:44.982Z,984.92
2019-04-04T09:48:44.975Z,984.85
2019-04-04T09:49:44.963Z,984.82
2019-04-04T09:50:44.955Z,984.82
2019-04-04T09:51:44.957Z,984.81
2019-04-04T09:52:44.942Z,984.83
2019-04-04T09:53:52.773Z,984.85
2019-04-04T09:54:46.942Z,984.92
2019-04-04T09:55:44.924Z,984.95
2019-04-04T09:56:44.919Z,984.99
2019-04-04T09:57:45.003Z,985.05
2019-04-04T09:58:44.896Z,985.09
2019-04-04T09:59:44.887Z,985.15
2019-04-04T10:00:44.883Z,985.20
2019-04-04T10:01:44.877Z,985.23
2019-04-04T10:02:44.889Z,985.22
2019-04-04T10:03:44.861Z,985.24
2019-04-04T10:04:44.855Z,985.27
2019-04-04T10:05:44.856Z,985.26
2019-04-04T10:06:44.846Z,985.28
2019-04-04T10:07:44.898Z,985.32
2019-04-04T10:08:44.817Z,985.36
2019-04-04T10:09:44.814Z,985.41
2019-04-04T10:10:44.829Z,985.46
2019-04-04T10:11:44.794Z,985.52
2019-04-04T10:12:44.808Z,985.51
2019-04-04T10:13:44.824Z,985.51
2019-04-04T10:14:44.809Z,985.54
2019-04-04T10:15:44.816Z,985.50
2019-04-04T10:16:44.810Z,985.46
2019-04-04T10:17:44.827Z,985.43
2019-04-04T10:18:44.837Z,985.38
2019-04-04T10:19:44.779Z,985.35
2019-04-04T10:20:44.795Z,985.38
2019-04-04T10:21:44.783Z,985.46
2019-04-04T10:22:44.788Z,985.51
2019-04-04T10:23:44.780Z,985.55
2019-04-04T10:24:44.750Z,985.64
2019-04-04T10:25:44.746Z,985.56
2019-04-04T10:26:44.735Z,985.54
2019-04-04T10:27:44.723Z,985.50
2019-04-04T10:28:44.732Z,985.51
2019-04-04T10:29:44.714Z,985.45
2019-04-04T10:30:44.708Z,985.44
2019-04-04T10:31:44.700Z,985.50
2019-04-04T10:32:44.698Z,985.54
2019-04-04T10:33:44.689Z,985.60
2019-04-04T10:34:44.686Z,985.64
2019-04-04T10:35:44.669Z,985.65
2019-04-04T10:36:44.660Z,985.74
2019-04-04T10:37:44.651Z,985.82
2019-04-04T10:38:44.645Z,985.81
2019-04-04T10:39:44.645Z,985.71
2019-04-04T10:40:44.634Z,985.74
2019-04-04T10:41:44.622Z,985.73
2019-04-04T10:42:44.625Z,985.63
2019-04-04T10:43:44.607Z,985.69
2019-04-04T10:44:44.601Z,985.65
2019-04-04T10:45:44.590Z,985.66
2019-04-04T10:46:44.584Z,985.76
2019-04-04T10:47:44.569Z,985.68
2019-04-04T10:48:44.570Z,985.70
2019-04-04T10:49:44.569Z,985.66
2019-04-04T10:50:44.559Z,985.59
2019-04-04T10:51:44.550Z,985.59
2019-04-04T10:52:44.540Z,985.53
2019-04-04T10:53:44.525Z,985.52
2019-04-04T10:54:44.525Z,985.58
2019-04-04T10:55:44.516Z,985.51
2019-04-04T10:56:44.515Z,985.55
2019-04-04T10:57:44.494Z,985.65
2019-04-04T10:58:44.489Z,985.63
2019-04-04T10:59:44.480Z,985.64
2019-04-04T11:00:44.476Z,985.66
2019-04-04T11:01:44.465Z,985.67
2019-04-04T11:02:44.501Z,985.66
2019-04-04T11:03:44.449Z,985.72
2019-04-04T11:04:44.438Z,985.67
2019-04-04T11:05:44.458Z,985.71
2019-04-04T11:06:44.442Z,985.73
2019-04-04T11:07:44.424Z,985.70
2019-04-04T11:08:44.418Z,985.66
2019-04-04T11:09:44.435Z,985.65
2019-04-04T11:10:44.442Z,985.68
2019-04-04T11:11:44.435Z,985.72
2019-04-04T11:12:44.413Z,985.71
2019-04-04T11:13:44.399Z,985.75
2019-04-04T11:14:44.394Z,985.70
2019-04-04T11:15:44.386Z,985.78
2019-04-04T11:16:44.380Z,985.82
2019-04-04T11:17:44.366Z,985.87
2019-04-04T11:18:44.361Z,985.90
2019-04-04T11:19:44.395Z,985.81
2019-04-04T11:20:44.344Z,985.82
2019-04-04T11:21:44.348Z,985.85
2019-04-04T11:22:44.336Z,985.82
2019-04-04T11:23:44.320Z,985.77
2019-04-04T11:24:44.321Z,986.01
2019-04-04T11:25:44.306Z,985.66
2019-04-04T11:26:44.307Z,985.68
2019-04-04T11:27:44.298Z,985.65
2019-04-04T11:28:44.278Z,985.57
2019-04-04T11:29:44.271Z,985.58
2019-04-04T11:30:44.263Z,985.52
2019-04-04T11:31:44.252Z,985.58
2019-04-04T11:32:44.253Z,985.54
2019-04-04T11:33:44.237Z,985.55
2019-04-04T11:34:53.191Z,985.49
2019-04-04T11:35:46.225Z,985.53
2019-04-04T11:36:44.240Z,985.53
2019-04-04T11:37:44.235Z,985.55
2019-04-04T11:38:44.395Z,985.52
2019-04-04T11:39:53.910Z,985.56
2019-04-04T11:40:46.211Z,985.55
2019-04-04T11:41:44.210Z,985.59
2019-04-04T11:42:44.200Z,985.60
2019-04-04T11:43:44.207Z,985.56
2019-04-04T11:44:44.178Z,985.53
2019-04-04T11:45:44.170Z,985.55
2019-04-04T11:46:44.162Z,985.59
2019-04-04T11:47:44.158Z,985.64
2019-04-04T11:48:44.154Z,985.68
2019-04-04T11:49:44.139Z,985.74
2019-04-04T11:50:44.138Z,985.76
2019-04-04T11:51:44.123Z,985.82
2019-04-04T11:52:44.115Z,985.88
2019-04-04T11:53:44.123Z,985.92
2019-04-04T11:54:44.118Z,985.96
2019-04-04T11:55:44.113Z,985.94
2019-04-04T11:56:44.098Z,985.94
2019-04-04T11:57:44.089Z,985.99
2019-04-04T11:58:44.089Z,985.95
2019-04-04T11:59:44.090Z,985.89
2019-04-04T12:00:44.105Z,985.90
2019-04-04T12:01:44.060Z,985.85
2019-04-04T12:02:44.052Z,985.85
2019-04-04T12:03:44.041Z,985.80
2019-04-04T12:04:44.043Z,985.76
2019-04-04T12:05:44.034Z,985.67
2019-04-04T12:06:44.020Z,985.71
2019-04-04T12:07:44.014Z,985.70
2019-04-04T12:08:44.014Z,985.79
2019-04-04T12:09:44.002Z,985.82
2019-04-04T12:10:43.998Z,985.90
2019-04-04T12:11:43.982Z,985.98
2019-04-04T12:12:43.978Z,986.05
2019-04-04T12:13:43.984Z,986.03
2019-04-04T12:14:43.962Z,986.08
2019-04-04T12:15:43.959Z,986.15
2019-04-04T12:16:43.941Z,986.12
2019-04-04T12:17:43.937Z,986.21
2019-04-04T12:18:43.931Z,986.27
2019-04-04T12:19:43.921Z,986.34
2019-04-04T12:20:43.919Z,986.27
2019-04-04T12:21:43.919Z,986.22
2019-04-04T12:22:43.913Z,986.25
2019-04-04T12:23:43.908Z,986.28
2019-04-04T12:24:43.901Z,986.34
2019-04-04T12:25:43.892Z,986.48
2019-04-04T12:26:43.889Z,986.43
2019-04-04T12:27:43.874Z,986.52
2019-04-04T12:28:43.869Z,986.48